Portada
METAR-TAF:

METAR-TAF

Aeroports :

Duplin County Airport

Kenansville, Carolina del Nord, Estats Units d'Amèrica

latitud: 35-00-00N, longitud: 077-58-54W, altitud: 42 m

Observació

L'informe es va fer fa 23 minuts, a les 12:35 UTC
Vent calma
Temperatura 8°C
Humitat 100%
Pressió 1012 hPa
Visibilitat: 4.8 km
Cel cobert a una alçada de 300 ft
boirina

METAR: KDPL 191235Z AUTO 00000KT 3SM BR OVC003 08/08 A2987 RMK AO2

Hora: 07:58 (12:58 UTC)


TAF: manca

Observacions i pronòstics meteorològics de més de 4000 aeroports (METAR i TAF).

Les estacions disponibles són els punts grocs i vermells al mapa.

Posi el ratolí al punt desitjat per veure el nom de l'estació.

Feu clic per veure les observacions i els pronòstics meteorològics.

Per canviar el mapa: feu clic els botons verds amb una creu de color negre per apropar; al botó verd amb un guió per allunyar la imatge; o en les fletxes verdes per a mapes adjacents.


METAR-TAF: